sensor_id;sensor_type;location;lat;lon;timestamp;pressure;altitude;pressure_sealevel;temperature;humidity
8717;BME280;4395;48.554;8.820;2024-01-07T00:00:03;95213.63;;;3.80;81.83
8717;BME280;4395;48.554;8.820;2024-01-07T00:02:06;95221.81;;;3.77;81.85
8717;BME280;4395;48.554;8.820;2024-01-07T00:04:08;95221.50;;;3.74;81.86
8717;BME280;4395;48.554;8.820;2024-01-07T00:06:10;95222.50;;;3.73;81.81
8717;BME280;4395;48.554;8.820;2024-01-07T00:08:13;95227.44;;;3.74;82.16
8717;BME280;4395;48.554;8.820;2024-01-07T00:10:16;95228.19;;;3.75;82.17
8717;BME280;4395;48.554;8.820;2024-01-07T00:12:18;95221.03;;;3.77;82.14
8717;BME280;4395;48.554;8.820;2024-01-07T00:14:21;95221.69;;;3.84;81.75
8717;BME280;4395;48.554;8.820;2024-01-07T00:16:25;95224.03;;;3.85;81.68
8717;BME280;4395;48.554;8.820;2024-01-07T00:18:27;95224.50;;;3.82;81.54
8717;BME280;4395;48.554;8.820;2024-01-07T00:20:30;95224.03;;;3.85;81.82
8717;BME280;4395;48.554;8.820;2024-01-07T00:22:33;95222.34;;;3.91;81.57
8717;BME280;4395;48.554;8.820;2024-01-07T00:24:35;95217.97;;;3.91;81.30
8717;BME280;4395;48.554;8.820;2024-01-07T00:26:38;95223.25;;;3.85;81.11
8717;BME280;4395;48.554;8.820;2024-01-07T00:28:40;95221.03;;;3.77;81.53
8717;BME280;4395;48.554;8.820;2024-01-07T00:30:44;95222.59;;;3.78;81.84
8717;BME280;4395;48.554;8.820;2024-01-07T00:32:48;95227.72;;;3.78;81.59
8717;BME280;4395;48.554;8.820;2024-01-07T00:34:52;95233.09;;;3.76;81.50
8717;BME280;4395;48.554;8.820;2024-01-07T00:36:56;95229.31;;;3.79;81.74
8717;BME280;4395;48.554;8.820;2024-01-07T00:38:59;95227.28;;;3.81;81.78
8717;BME280;4395;48.554;8.820;2024-01-07T00:41:02;95236.59;;;3.82;81.66
8717;BME280;4395;48.554;8.820;2024-01-07T00:43:04;95220.13;;;3.83;81.70
8717;BME280;4395;48.554;8.820;2024-01-07T00:45:08;95234.00;;;3.82;81.37
8717;BME280;4395;48.554;8.820;2024-01-07T00:47:11;95226.50;;;3.80;81.78
8717;BME280;4395;48.554;8.820;2024-01-07T00:49:15;95223.78;;;3.87;81.51
8717;BME280;4395;48.554;8.820;2024-01-07T00:51:18;95227.41;;;3.86;81.53
8717;BME280;4395;48.554;8.820;2024-01-07T00:53:21;95229.84;;;3.92;81.73
8717;BME280;4395;48.554;8.820;2024-01-07T00:55:24;95227.81;;;3.94;81.40
8717;BME280;4395;48.554;8.820;2024-01-07T00:57:27;95232.97;;;3.94;81.00
8717;BME280;4395;48.554;8.820;2024-01-07T00:59:29;95233.09;;;3.88;81.39
8717;BME280;4395;48.554;8.820;2024-01-07T01:01:32;95226.84;;;3.84;81.39
8717;BME280;4395;48.554;8.820;2024-01-07T01:03:34;95231.78;;;3.85;81.46
8717;BME280;4395;48.554;8.820;2024-01-07T01:05:39;95227.16;;;3.87;81.28
8717;BME280;4395;48.554;8.820;2024-01-07T01:07:42;95231.50;;;3.87;81.52
8717;BME280;4395;48.554;8.820;2024-01-07T01:09:44;95236.03;;;3.80;81.34
8717;BME280;4395;48.554;8.820;2024-01-07T01:11:47;95231.66;;;3.80;81.26
8717;BME280;4395;48.554;8.820;2024-01-07T01:13:51;95237.47;;;3.76;81.63
8717;BME280;4395;48.554;8.820;2024-01-07T01:15:53;95241.63;;;3.77;81.63
8717;BME280;4395;48.554;8.820;2024-01-07T01:17:57;95242.53;;;3.71;81.66
8717;BME280;4395;48.554;8.820;2024-01-07T01:20:00;95240.63;;;3.66;81.73
8717;BME280;4395;48.554;8.820;2024-01-07T01:22:03;95243.34;;;3.59;82.09
8717;BME280;4395;48.554;8.820;2024-01-07T01:24:06;95240.28;;;3.62;82.04
8717;BME280;4395;48.554;8.820;2024-01-07T01:26:09;95242.22;;;3.55;82.34
8717;BME280;4395;48.554;8.820;2024-01-07T01:28:11;95238.41;;;3.58;82.39
8717;BME280;4395;48.554;8.820;2024-01-07T01:30:14;95244.78;;;3.55;82.21
8717;BME280;4395;48.554;8.820;2024-01-07T01:32:18;95241.66;;;3.53;82.07
8717;BME280;4395;48.554;8.820;2024-01-07T01:34:20;95243.66;;;3.51;82.38
8717;BME280;4395;48.554;8.820;2024-01-07T01:36:22;95245.00;;;3.54;82.09
8717;BME280;4395;48.554;8.820;2024-01-07T01:38:27;95242.56;;;3.47;82.34
8717;BME280;4395;48.554;8.820;2024-01-07T01:40:29;95248.16;;;3.44;82.34
8717;BME280;4395;48.554;8.820;2024-01-07T01:42:32;95238.50;;;3.51;82.49
8717;BME280;4395;48.554;8.820;2024-01-07T01:44:35;95237.06;;;3.55;82.13
8717;BME280;4395;48.554;8.820;2024-01-07T01:46:38;95245.00;;;3.54;82.36
8717;BME280;4395;48.554;8.820;2024-01-07T01:48:41;95243.00;;;3.44;82.51
8717;BME280;4395;48.554;8.820;2024-01-07T01:50:45;95243.88;;;3.38;82.79
8717;BME280;4395;48.554;8.820;2024-01-07T01:52:49;95250.59;;;3.39;82.71
8717;BME280;4395;48.554;8.820;2024-01-07T01:54:54;95243.66;;;3.40;82.72
8717;BME280;4395;48.554;8.820;2024-01-07T01:56:57;95242.44;;;3.42;82.75
8717;BME280;4395;48.554;8.820;2024-01-07T01:59:00;95247.00;;;3.40;82.61
8717;BME280;4395;48.554;8.820;2024-01-07T02:01:04;95247.00;;;3.40;82.88
8717;BME280;4395;48.554;8.820;2024-01-07T02:03:07;95239.19;;;3.35;82.98
8717;BME280;4395;48.554;8.820;2024-01-07T02:05:10;95243.34;;;3.36;82.76
8717;BME280;4395;48.554;8.820;2024-01-07T02:07:15;95242.34;;;3.37;82.67
8717;BME280;4395;48.554;8.820;2024-01-07T02:09:18;95234.38;;;3.39;82.85
8717;BME280;4395;48.554;8.820;2024-01-07T02:11:22;95244.34;;;3.35;83.04
8717;BME280;4395;48.554;8.820;2024-01-07T02:13:25;95238.41;;;3.35;82.60
8717;BME280;4395;48.554;8.820;2024-01-07T02:15:28;95241.22;;;3.33;82.81
8717;BME280;4395;48.554;8.820;2024-01-07T02:17:31;95236.06;;;3.33;82.79
8717;BME280;4395;48.554;8.820;2024-01-07T02:22:46;95245.91;;;3.36;82.52
8717;BME280;4395;48.554;8.820;2024-01-07T02:24:50;95245.44;;;3.39;82.68
8717;BME280;4395;48.554;8.820;2024-01-07T02:26:52;95240.31;;;3.39;82.45
8717;BME280;4395;48.554;8.820;2024-01-07T02:28:54;95249.59;;;3.40;82.43
8717;BME280;4395;48.554;8.820;2024-01-07T02:30:57;95252.63;;;3.37;82.66
8717;BME280;4395;48.554;8.820;2024-01-07T02:33:04;95248.50;;;3.36;82.74
8717;BME280;4395;48.554;8.820;2024-01-07T02:35:07;95248.94;;;3.33;83.06
8717;BME280;4395;48.554;8.820;2024-01-07T02:37:09;95247.22;;;3.27;83.21
8717;BME280;4395;48.554;8.820;2024-01-07T02:39:12;95251.72;;;3.20;83.55
8717;BME280;4395;48.554;8.820;2024-01-07T02:41:16;95252.16;;;3.17;83.91
8717;BME280;4395;48.554;8.820;2024-01-07T02:43:18;95244.66;;;3.15;84.02
8717;BME280;4395;48.554;8.820;2024-01-07T02:45:20;95256.50;;;3.16;84.10
8717;BME280;4395;48.554;8.820;2024-01-07T02:47:23;95250.59;;;3.16;84.06
8717;BME280;4395;48.554;8.820;2024-01-07T02:49:28;95254.63;;;3.12;84.12
8717;BME280;4395;48.554;8.820;2024-01-07T02:51:31;95246.69;;;3.13;84.23
8717;BME280;4395;48.554;8.820;2024-01-07T02:53:34;95248.78;;;3.05;84.43
8717;BME280;4395;48.554;8.820;2024-01-07T02:55:37;95253.94;;;3.05;84.85
8717;BME280;4395;48.554;8.820;2024-01-07T02:57:40;95252.81;;;3.01;84.76
8717;BME280;4395;48.554;8.820;2024-01-07T02:59:43;95257.50;;;3.04;84.87
8717;BME280;4395;48.554;8.820;2024-01-07T03:01:46;95255.94;;;3.03;85.06
8717;BME280;4395;48.554;8.820;2024-01-07T03:03:49;95250.34;;;3.06;84.86
8717;BME280;4395;48.554;8.820;2024-01-07T03:05:52;95260.84;;;3.04;84.90
8717;BME280;4395;48.554;8.820;2024-01-07T03:07:54;95258.78;;;3.13;85.05
8717;BME280;4395;48.554;8.820;2024-01-07T03:09:57;95262.44;;;3.17;85.22
8717;BME280;4395;48.554;8.820;2024-01-07T03:12:00;95259.56;;;3.25;84.84
8717;BME280;4395;48.554;8.820;2024-01-07T03:14:04;95264.25;;;3.28;84.47
8717;BME280;4395;48.554;8.820;2024-01-07T03:16:07;95259.56;;;3.25;84.41
8717;BME280;4395;48.554;8.820;2024-01-07T03:18:10;95262.00;;;3.20;84.31
8717;BME280;4395;48.554;8.820;2024-01-07T03:20:13;95262.44;;;3.17;84.51
8717;BME280;4395;48.554;8.820;2024-01-07T03:22:15;95265.47;;;3.14;84.59
8717;BME280;4395;48.554;8.820;2024-01-07T03:24:17;95265.47;;;3.14;84.55
8717;BME280;4395;48.554;8.820;2024-01-07T03:26:20;95266.78;;;3.05;84.69
8717;BME280;4395;48.554;8.820;2024-01-07T03:28:23;95266.22;;;3.03;84.90
8717;BME280;4395;48.554;8.820;2024-01-07T03:30:27;95264.22;;;3.05;85.00
8717;BME280;4395;48.554;8.820;2024-01-07T03:32:30;95268.72;;;3.09;84.96
8717;BME280;4395;48.554;8.820;2024-01-07T03:34:32;95268.50;;;3.11;84.81
8717;BME280;4395;48.554;8.820;2024-01-07T03:36:35;95269.28;;;3.11;84.81
8717;BME280;4395;48.554;8.820;2024-01-07T03:38:39;95272.50;;;3.07;84.88
8717;BME280;4395;48.554;8.820;2024-01-07T03:40:42;95277.06;;;3.05;84.99
8717;BME280;4395;48.554;8.820;2024-01-07T03:42:45;95273.50;;;3.06;85.04
8717;BME280;4395;48.554;8.820;2024-01-07T03:44:47;95271.81;;;3.00;85.27
8717;BME280;4395;48.554;8.820;2024-01-07T03:46:51;95272.81;;;2.99;85.21
8717;BME280;4395;48.554;8.820;2024-01-07T03:48:54;95280.09;;;3.02;85.23
8717;BME280;4395;48.554;8.820;2024-01-07T03:50:56;95277.84;;;2.94;85.51
8717;BME280;4395;48.554;8.820;2024-01-07T03:52:59;95280.63;;;2.92;85.61
8717;BME280;4395;48.554;8.820;2024-01-07T03:55:02;95272.69;;;2.94;85.64
8717;BME280;4395;48.554;8.820;2024-01-07T03:57:05;95277.84;;;2.94;85.62
8717;BME280;4395;48.554;8.820;2024-01-07T03:59:08;95271.22;;;2.86;85.67
8717;BME280;4395;48.554;8.820;2024-01-07T04:01:15;95281.88;;;2.89;85.94
8717;BME280;4395;48.554;8.820;2024-01-07T04:03:20;95281.16;;;2.82;85.85
8717;BME280;4395;48.554;8.820;2024-01-07T04:05:23;95280.28;;;2.77;86.26
8717;BME280;4395;48.554;8.820;2024-01-07T04:07:25;95283.63;;;2.77;86.21
8717;BME280;4395;48.554;8.820;2024-01-07T04:09:28;95284.06;;;2.74;86.41
8717;BME280;4395;48.554;8.820;2024-01-07T04:11:32;95283.53;;;2.84;86.27
8717;BME280;4395;48.554;8.820;2024-01-07T04:13:34;95285.09;;;2.85;86.18
8717;BME280;4395;48.554;8.820;2024-01-07T04:15:37;95288.22;;;2.87;86.27
8717;BME280;4395;48.554;8.820;2024-01-07T04:17:40;95284.88;;;2.86;86.31
8717;BME280;4395;48.554;8.820;2024-01-07T04:19:44;95284.56;;;2.95;86.45
8717;BME280;4395;48.554;8.820;2024-01-07T04:21:47;95288.81;;;3.01;86.07
8717;BME280;4395;48.554;8.820;2024-01-07T04:23:50;95288.16;;;3.05;85.89
8717;BME280;4395;48.554;8.820;2024-01-07T04:25:53;95285.72;;;3.10;85.58
8717;BME280;4395;48.554;8.820;2024-01-07T04:27:55;95291.63;;;3.11;85.72
8717;BME280;4395;48.554;8.820;2024-01-07T04:29:58;95293.63;;;3.09;85.24
8717;BME280;4395;48.554;8.820;2024-01-07T04:32:01;95290.81;;;2.99;85.47
8717;BME280;4395;48.554;8.820;2024-01-07T04:34:04;95291.13;;;2.90;85.71
8717;BME280;4395;48.554;8.820;2024-01-07T04:36:08;95292.16;;;2.89;85.99
8717;BME280;4395;48.554;8.820;2024-01-07T04:38:11;95296.50;;;2.89;85.98
8717;BME280;4395;48.554;8.820;2024-01-07T04:40:14;95293.25;;;2.94;86.12
8717;BME280;4395;48.554;8.820;2024-01-07T04:42:17;95294.16;;;2.87;86.03
8717;BME280;4395;48.554;8.820;2024-01-07T04:44:20;95297.28;;;2.89;85.92
8717;BME280;4395;48.554;8.820;2024-01-07T04:46:23;95293.25;;;2.94;85.86
8717;BME280;4395;48.554;8.820;2024-01-07T04:48:25;95297.28;;;2.89;85.85
8717;BME280;4395;48.554;8.820;2024-01-07T04:50:28;95296.94;;;2.86;85.71
8717;BME280;4395;48.554;8.820;2024-01-07T04:52:32;95301.31;;;2.85;85.88
8717;BME280;4395;48.554;8.820;2024-01-07T04:54:36;95302.44;;;2.89;85.94
8717;BME280;4395;48.554;8.820;2024-01-07T04:56:38;95303.97;;;2.90;86.12
8717;BME280;4395;48.554;8.820;2024-01-07T04:58:41;95308.59;;;2.88;86.00
8717;BME280;4395;48.554;8.820;2024-01-07T05:00:44;95304.75;;;2.91;85.82
8717;BME280;4395;48.554;8.820;2024-01-07T05:02:47;95310.69;;;2.92;85.66
8717;BME280;4395;48.554;8.820;2024-01-07T05:04:50;95307.59;;;2.89;85.50
8717;BME280;4395;48.554;8.820;2024-01-07T05:06:51;95307.13;;;2.93;85.45
8717;BME280;4395;48.554;8.820;2024-01-07T05:08:56;95307.44;;;2.84;85.72
8717;BME280;4395;48.554;8.820;2024-01-07T05:10:59;95309.81;;;2.86;85.55
8717;BME280;4395;48.554;8.820;2024-01-07T05:13:00;95310.38;;;2.88;85.77
8717;BME280;4395;48.554;8.820;2024-01-07T05:15:07;95313.94;;;2.87;85.39
8717;BME280;4395;48.554;8.820;2024-01-07T05:17:10;95315.59;;;2.81;85.26
8717;BME280;4395;48.554;8.820;2024-01-07T05:19:13;95329.59;;;2.85;85.46
8717;BME280;4395;48.554;8.820;2024-01-07T05:21:18;95326.59;;;2.88;85.17
8717;BME280;4395;48.554;8.820;2024-01-07T05:23:21;95325.00;;;2.87;84.83
8717;BME280;4395;48.554;8.820;2024-01-07T05:25:25;95332.25;;;2.90;84.91
8717;BME280;4395;48.554;8.820;2024-01-07T05:27:27;95324.13;;;2.94;84.95
8717;BME280;4395;48.554;8.820;2024-01-07T05:29:30;95324.13;;;2.94;84.74
8717;BME280;4395;48.554;8.820;2024-01-07T05:31:35;95322.56;;;2.93;84.57
8717;BME280;4395;48.554;8.820;2024-01-07T05:33:37;95325.34;;;2.91;84.58
8717;BME280;4395;48.554;8.820;2024-01-07T05:35:41;95327.69;;;2.93;84.47
8717;BME280;4395;48.554;8.820;2024-01-07T05:37:44;95324.56;;;2.90;84.33
8717;BME280;4395;48.554;8.820;2024-01-07T05:39:46;95330.25;;;2.93;84.72
8717;BME280;4395;48.554;8.820;2024-01-07T05:41:51;95326.69;;;2.94;84.47
8717;BME280;4395;48.554;8.820;2024-01-07T05:43:53;95328.16;;;2.89;83.72
8717;BME280;4395;48.554;8.820;2024-01-07T05:45:56;95336.88;;;2.88;83.87
8717;BME280;4395;48.554;8.820;2024-01-07T05:47:59;95330.94;;;2.88;83.79
8717;BME280;4395;48.554;8.820;2024-01-07T05:50:02;95332.94;;;2.86;83.97
8717;BME280;4395;48.554;8.820;2024-01-07T05:52:04;95332.16;;;2.85;84.15
8717;BME280;4395;48.554;8.820;2024-01-07T05:54:07;95340.75;;;2.91;84.19
8717;BME280;4395;48.554;8.820;2024-01-07T05:56:10;95341.22;;;2.88;84.02
8717;BME280;4395;48.554;8.820;2024-01-07T05:58:14;95341.13;;;2.95;83.79
8717;BME280;4395;48.554;8.820;2024-01-07T06:00:17;95342.00;;;2.88;83.66
8717;BME280;4395;48.554;8.820;2024-01-07T06:02:19;95341.53;;;2.92;83.56
8717;BME280;4395;48.554;8.820;2024-01-07T06:04:24;95347.16;;;2.88;83.64
8717;BME280;4395;48.554;8.820;2024-01-07T06:06:27;95349.38;;;2.85;83.69
8717;BME280;4395;48.554;8.820;2024-01-07T06:08:29;95349.16;;;2.86;83.68
8717;BME280;4395;48.554;8.820;2024-01-07T06:10:32;95349.00;;;2.81;83.61
8717;BME280;4395;48.554;8.820;2024-01-07T06:12:34;95348.00;;;2.82;83.53
8717;BME280;4395;48.554;8.820;2024-01-07T06:14:39;95351.56;;;2.81;83.87
8717;BME280;4395;48.554;8.820;2024-01-07T06:16:41;95347.53;;;2.74;84.11
8717;BME280;4395;48.554;8.820;2024-01-07T06:18:44;95341.19;;;2.76;84.29
8717;BME280;4395;48.554;8.820;2024-01-07T06:20:47;95344.28;;;2.78;84.10
8717;BME280;4395;48.554;8.820;2024-01-07T06:22:50;95346.53;;;2.75;84.23
8717;BME280;4395;48.554;8.820;2024-01-07T06:24:52;95353.16;;;2.82;84.23
8717;BME280;4395;48.554;8.820;2024-01-07T06:26:55;95351.00;;;2.79;84.32
8717;BME280;4395;48.554;8.820;2024-01-07T06:28:57;95358.28;;;2.82;84.11
8717;BME280;4395;48.554;8.820;2024-01-07T06:31:03;95362.28;;;2.78;83.84
8717;BME280;4395;48.554;8.820;2024-01-07T06:33:06;95357.03;;;2.73;83.96
8717;BME280;4395;48.554;8.820;2024-01-07T06:35:09;95361.59;;;2.71;84.20
8717;BME280;4395;48.554;8.820;2024-01-07T06:37:12;95371.88;;;2.71;84.33
8717;BME280;4395;48.554;8.820;2024-01-07T06:39:15;95366.31;;;2.74;84.02
8717;BME280;4395;48.554;8.820;2024-01-07T06:41:18;95366.66;;;2.78;83.97
8717;BME280;4395;48.554;8.820;2024-01-07T06:43:21;95365.94;;;2.71;83.82
8717;BME280;4395;48.554;8.820;2024-01-07T06:45:24;95373.88;;;2.69;83.99
8717;BME280;4395;48.554;8.820;2024-01-07T06:47:28;95377.44;;;2.68;84.08
8717;BME280;4395;48.554;8.820;2024-01-07T06:49:31;95371.19;;;2.64;83.62
8717;BME280;4395;48.554;8.820;2024-01-07T06:51:34;95370.03;;;2.60;83.87
8717;BME280;4395;48.554;8.820;2024-01-07T06:53:37;95385.47;;;2.60;84.00
8717;BME280;4395;48.554;8.820;2024-01-07T06:55:39;95387.03;;;2.61;84.18
8717;BME280;4395;48.554;8.820;2024-01-07T06:57:43;95386.25;;;2.61;84.41
8717;BME280;4395;48.554;8.820;2024-01-07T06:59:46;95384.47;;;2.61;84.35
8717;BME280;4395;48.554;8.820;2024-01-07T07:01:48;95382.53;;;2.57;84.18
8717;BME280;4395;48.554;8.820;2024-01-07T07:03:52;95394.59;;;2.56;84.48
8717;BME280;4395;48.554;8.820;2024-01-07T07:05:55;95388.66;;;2.56;84.41
8717;BME280;4395;48.554;8.820;2024-01-07T07:07:58;95392.03;;;2.56;84.68
8717;BME280;4395;48.554;8.820;2024-01-07T07:10:01;95395.75;;;2.60;84.71
8717;BME280;4395;48.554;8.820;2024-01-07T07:12:03;95402.09;;;2.58;84.63
8717;BME280;4395;48.554;8.820;2024-01-07T07:14:06;95401.31;;;2.57;84.47
8717;BME280;4395;48.554;8.820;2024-01-07T07:16:09;95406.88;;;2.54;84.34
8717;BME280;4395;48.554;8.820;2024-01-07T07:18:12;95403.03;;;2.45;84.38
8717;BME280;4395;48.554;8.820;2024-01-07T07:20:15;95409.16;;;2.44;84.31
8717;BME280;4395;48.554;8.820;2024-01-07T07:22:18;95411.03;;;2.37;84.59
8717;BME280;4395;48.554;8.820;2024-01-07T07:24:21;95417.16;;;2.36;84.48
8717;BME280;4395;48.554;8.820;2024-01-07T07:26:24;95418.31;;;2.40;84.86
8717;BME280;4395;48.554;8.820;2024-01-07T07:28:27;95416.88;;;2.44;84.54
8717;BME280;4395;48.554;8.820;2024-01-07T07:30:29;95418.31;;;2.40;84.32
8717;BME280;4395;48.554;8.820;2024-01-07T07:32:32;95418.44;;;2.45;84.62
8717;BME280;4395;48.554;8.820;2024-01-07T07:34:35;95426.72;;;2.47;84.35
8717;BME280;4395;48.554;8.820;2024-01-07T07:36:39;95427.13;;;2.44;84.15
8717;BME280;4395;48.554;8.820;2024-01-07T07:38:43;95432.28;;;2.44;84.30
8717;BME280;4395;48.554;8.820;2024-01-07T07:40:45;95434.94;;;2.37;84.02
8717;BME280;4395;48.554;8.820;2024-01-07T07:42:54;95433.16;;;2.38;83.84
8717;BME280;4395;48.554;8.820;2024-01-07T07:44:56;95437.88;;;2.41;83.98
8717;BME280;4395;48.554;8.820;2024-01-07T07:46:59;95437.41;;;2.44;84.11
8717;BME280;4395;48.554;8.820;2024-01-07T07:49:02;95439.34;;;2.48;83.94
8717;BME280;4395;48.554;8.820;2024-01-07T07:51:05;95446.28;;;2.48;83.56
8717;BME280;4395;48.554;8.820;2024-01-07T07:53:09;95447.44;;;2.52;83.50
8717;BME280;4395;48.554;8.820;2024-01-07T07:55:12;95450.41;;;2.49;83.05
8717;BME280;4395;48.554;8.820;2024-01-07T07:57:15;95440.44;;;2.59;83.45
8717;BME280;4395;48.554;8.820;2024-01-07T07:59:17;95448.84;;;2.48;83.32
8717;BME280;4395;48.554;8.820;2024-01-07T08:01:20;95450.97;;;2.33;83.21
8717;BME280;4395;48.554;8.820;2024-01-07T08:03:23;95441.44;;;2.40;83.84
8717;BME280;4395;48.554;8.820;2024-01-07T08:05:26;95454.81;;;2.42;83.77
8717;BME280;4395;48.554;8.820;2024-01-07T08:07:29;95449.34;;;2.38;83.50
8717;BME280;4395;48.554;8.820;2024-01-07T08:09:33;95446.63;;;2.33;83.62
8717;BME280;4395;48.554;8.820;2024-01-07T08:11:38;95459.84;;;2.37;83.79
8717;BME280;4395;48.554;8.820;2024-01-07T08:13:41;95459.97;;;2.42;83.77
8717;BME280;4395;48.554;8.820;2024-01-07T08:15:44;95464.28;;;2.48;84.00
8717;BME280;4395;48.554;8.820;2024-01-07T08:17:47;95461.13;;;2.46;83.64
8717;BME280;4395;48.554;8.820;2024-01-07T08:19:50;95457.13;;;2.50;83.51
8717;BME280;4395;48.554;8.820;2024-01-07T08:21:54;95472.75;;;2.48;83.38
8717;BME280;4395;48.554;8.820;2024-01-07T08:23:58;95475.34;;;2.48;83.53
8717;BME280;4395;48.554;8.820;2024-01-07T08:26:03;95476.53;;;2.46;83.08
8717;BME280;4395;48.554;8.820;2024-01-07T08:28:06;95478.81;;;2.54;83.18
8717;BME280;4395;48.554;8.820;2024-01-07T08:30:08;95470.25;;;2.42;82.65
8717;BME280;4395;48.554;8.820;2024-01-07T08:32:11;95477.75;;;2.43;83.03
8717;BME280;4395;48.554;8.820;2024-01-07T08:34:14;95469.19;;;2.49;83.33
8717;BME280;4395;48.554;8.820;2024-01-07T08:36:17;95467.84;;;2.47;82.81
8717;BME280;4395;48.554;8.820;2024-01-07T08:38:20;95470.09;;;2.37;82.95
8717;BME280;4395;48.554;8.820;2024-01-07T08:40:23;95475.09;;;2.32;83.21
8717;BME280;4395;48.554;8.820;2024-01-07T08:42:28;95473.16;;;2.27;83.25
8717;BME280;4395;48.554;8.820;2024-01-07T08:44:31;95478.34;;;2.21;83.25
8717;BME280;4395;48.554;8.820;2024-01-07T08:46:34;95487.03;;;2.20;83.26
8717;BME280;4395;48.554;8.820;2024-01-07T08:48:37;95483.91;;;2.17;83.32
8717;BME280;4395;48.554;8.820;2024-01-07T08:50:40;95487.41;;;2.23;83.81
8717;BME280;4395;48.554;8.820;2024-01-07T08:52:43;95485.34;;;2.32;83.53
8717;BME280;4395;48.554;8.820;2024-01-07T08:54:48;95491.66;;;2.36;83.30
8717;BME280;4395;48.554;8.820;2024-01-07T08:56:49;95484.53;;;2.38;82.74
8717;BME280;4395;48.554;8.820;2024-01-07T08:58:54;95503.50;;;2.37;82.21
8717;BME280;4395;48.554;8.820;2024-01-07T09:00:56;95499.63;;;2.28;81.91
8717;BME280;4395;48.554;8.820;2024-01-07T09:02:59;95500.34;;;2.35;82.25
8717;BME280;4395;48.554;8.820;2024-01-07T09:05:02;95500.31;;;2.41;82.12
8717;BME280;4395;48.554;8.820;2024-01-07T09:07:05;95511.25;;;2.30;81.73
8717;BME280;4395;48.554;8.820;2024-01-07T09:09:08;95514.97;;;2.34;82.10
8717;BME280;4395;48.554;8.820;2024-01-07T09:11:11;95516.19;;;2.32;82.04
8717;BME280;4395;48.554;8.820;2024-01-07T09:13:14;95510.84;;;2.33;82.03
8717;BME280;4395;48.554;8.820;2024-01-07T09:15:19;95516.34;;;2.37;82.17
8717;BME280;4395;48.554;8.820;2024-01-07T09:17:22;95521.69;;;2.35;81.87
8717;BME280;4395;48.554;8.820;2024-01-07T09:19:25;95523.69;;;2.33;81.82
8717;BME280;4395;48.554;8.820;2024-01-07T09:21:28;95534.03;;;2.27;81.63
8717;BME280;4395;48.554;8.820;2024-01-07T09:23:31;95538.00;;;2.23;81.59
8717;BME280;4395;48.554;8.820;2024-01-07T09:25:35;95534.50;;;2.17;81.54
8717;BME280;4395;48.554;8.820;2024-01-07T09:27:37;95533.91;;;2.15;81.64
8717;BME280;4395;48.554;8.820;2024-01-07T09:29:40;95536.13;;;2.11;81.47
8717;BME280;4395;48.554;8.820;2024-01-07T09:31:44;95545.59;;;2.11;81.58
8717;BME280;4395;48.554;8.820;2024-01-07T09:33:48;95536.53;;;2.08;81.48
8717;BME280;4395;48.554;8.820;2024-01-07T09:35:50;95538.94;;;2.03;81.82
8717;BME280;4395;48.554;8.820;2024-01-07T09:37:52;95538.84;;;2.16;82.71
8717;BME280;4395;48.554;8.820;2024-01-07T09:39:56;95555.25;;;2.15;81.44
8717;BME280;4395;48.554;8.820;2024-01-07T09:41:59;95546.38;;;2.11;81.26
8717;BME280;4395;48.554;8.820;2024-01-07T09:44:03;95553.88;;;2.13;81.19
8717;BME280;4395;48.554;8.820;2024-01-07T09:46:06;95550.94;;;2.09;80.92
8717;BME280;4395;48.554;8.820;2024-01-07T09:48:10;95547.38;;;2.10;80.60
8717;BME280;4395;48.554;8.820;2024-01-07T09:50:13;95556.59;;;2.18;80.66
8717;BME280;4395;48.554;8.820;2024-01-07T09:52:20;95550.63;;;2.24;80.36
8717;BME280;4395;48.554;8.820;2024-01-07T09:54:23;95547.38;;;2.10;79.74
8717;BME280;4395;48.554;8.820;2024-01-07T09:56:29;95548.94;;;2.11;80.35
8717;BME280;4395;48.554;8.820;2024-01-07T09:58:36;95550.16;;;2.09;79.77
8717;BME280;4395;48.554;8.820;2024-01-07T10:00:39;95548.34;;;2.16;79.83
8717;BME280;4395;48.554;8.820;2024-01-07T10:02:42;95538.31;;;2.33;80.41
8717;BME280;4395;48.554;8.820;2024-01-07T10:04:47;95541.63;;;2.40;79.80
8717;BME280;4395;48.554;8.820;2024-01-07T10:06:50;95544.50;;;2.50;79.83
8717;BME280;4395;48.554;8.820;2024-01-07T10:08:55;95539.63;;;2.42;78.99
8717;BME280;4395;48.554;8.820;2024-01-07T10:10:58;95544.19;;;2.40;79.39
8717;BME280;4395;48.554;8.820;2024-01-07T10:13:00;95538.72;;;2.30;79.46
8717;BME280;4395;48.554;8.820;2024-01-07T10:15:04;95534.75;;;2.34;79.86
8717;BME280;4395;48.554;8.820;2024-01-07T10:17:14;95544.03;;;2.35;79.61
8717;BME280;4395;48.554;8.820;2024-01-07T10:19:20;95546.22;;;2.31;79.83
8717;BME280;4395;48.554;8.820;2024-01-07T10:21:24;95531.25;;;2.28;80.19
8717;BME280;4395;48.554;8.820;2024-01-07T10:23:27;95542.72;;;2.26;79.87
8717;BME280;4395;48.554;8.820;2024-01-07T10:25:30;95537.81;;;2.17;79.49
8717;BME280;4395;48.554;8.820;2024-01-07T10:27:35;95544.41;;;2.13;80.24
8717;BME280;4395;48.554;8.820;2024-01-07T10:29:38;95532.97;;;2.09;79.97
8717;BME280;4395;48.554;8.820;2024-01-07T10:31:41;95545.81;;;2.09;79.90
8717;BME280;4395;48.554;8.820;2024-01-07T10:33:44;95539.84;;;2.15;80.33
8717;BME280;4395;48.554;8.820;2024-01-07T10:35:57;95541.25;;;2.11;80.16
8717;BME280;4395;48.554;8.820;2024-01-07T10:38:07;95541.97;;;2.18;80.70
8717;BME280;4395;48.554;8.820;2024-01-07T10:40:11;95553.69;;;2.14;80.18
8717;BME280;4395;48.554;8.820;2024-01-07T10:42:16;95542.41;;;2.15;80.52
8717;BME280;4395;48.554;8.820;2024-01-07T10:44:20;95545.13;;;2.21;80.57
8717;BME280;4395;48.554;8.820;2024-01-07T10:46:24;95543.13;;;2.23;80.55
8717;BME280;4395;48.554;8.820;2024-01-07T10:48:30;95539.41;;;2.18;80.63
8717;BME280;4395;48.554;8.820;2024-01-07T10:50:34;95541.16;;;2.25;80.86
8717;BME280;4395;48.554;8.820;2024-01-07T10:52:39;95551.84;;;2.22;80.61
8717;BME280;4395;48.554;8.820;2024-01-07T10:54:44;95543.56;;;2.20;80.25
8717;BME280;4395;48.554;8.820;2024-01-07T10:56:51;95547.78;;;2.07;80.43
8717;BME280;4395;48.554;8.820;2024-01-07T10:58:56;95552.31;;;2.12;80.50
8717;BME280;4395;48.554;8.820;2024-01-07T11:00:59;95550.94;;;2.09;80.64
8717;BME280;4395;48.554;8.820;2024-01-07T11:03:07;95548.63;;;2.01;80.83
8717;BME280;4395;48.554;8.820;2024-01-07T11:05:17;95551.28;;;1.88;80.89
8717;BME280;4395;48.554;8.820;2024-01-07T11:07:27;95555.09;;;1.79;80.83
8717;BME280;4395;48.554;8.820;2024-01-07T11:09:47;95546.97;;;1.82;80.81
8717;BME280;4395;48.554;8.820;2024-01-07T11:11:54;95546.81;;;1.77;80.99
8717;BME280;4395;48.554;8.820;2024-01-07T11:13:57;95550.56;;;1.74;80.80
8717;BME280;4395;48.554;8.820;2024-01-07T11:16:02;95552.88;;;1.83;81.00
8717;BME280;4395;48.554;8.820;2024-01-07T11:18:05;95549.31;;;1.84;80.79
8717;BME280;4395;48.554;8.820;2024-01-07T11:20:13;95554.78;;;1.94;80.82
8717;BME280;4395;48.554;8.820;2024-01-07T11:22:24;95550.81;;;1.98;79.70